Terminal Aerodrome Forecast
Issued by NWS Lubbock, TX

Home | Current Version | Previous Version | Text Only | Print | Product List | Glossary On
Versions: 1 2 3 4 5 6 7 8 9 10 11 12
000
FTUS44 KLUB 282320
TAFLBB
TAF
KLBB 282320Z 2900/2924 18011KT P6SM BKN090 OVC110
      TEMPO 2900/2902 17011KT 5SM -TSRA BKN070 OVC100CB=

USA.gov is the U.S. government's official web portal to all federal, state and local government web resources and services.